»·PEaware :: N196EC KBUR-KPSP

N196EC :: KBUR-KPSP

FLIGHT INFORMATION

Flight Status: Arrived
Operator: Privately registered:
United States
More flights under this callsign
Pilot: Adrián R. (20842)
Aircraft: CESSNA 172 SKYHAWK
(C172)
More flights by this aircraft type
Origin: KBUR Bob Hope-Burbank
United States
Destination: KPSP Palm Springs Intl
United States
More flights between these airports :: More routes between these airports
Route: +VNY3 PMD V386 PSP
File this flight plan on PilotEdge
Remarks:
Altitude:
(Current/Filed)
11,000ft
Speed:
(Current/Filed)
110kts
Departed: 13-Nov-18 11:02 AM
Arrived: 13-Nov-18 12:33 PM
Distance/Time
Traveled:
95nm/1:31
Distance/Time
To Go:
Arrived

Flight Plot

Page will automatically refresh every two minutes.

Flight plan parsing failed; only flown route is shown


Map Options




Map Legend


Flown Route
Filed Route
Departure Airport
Arrival Airport
Navaid (VOR, NDB)
Fix

Horizontal Profiles

Position Reports

Time Latitude Longitude Heading Altitude Ground
Speed
13-Nov-18 10:19 34.200438 -118.363605 182 780ft 0kts
13-Nov-18 10:20 34.200438 -118.363605 182 780ft 0kts
13-Nov-18 10:21 34.200438 -118.363605 182 780ft 0kts
13-Nov-18 10:22 34.200438 -118.363605 182 780ft 0kts
13-Nov-18 10:23 34.200438 -118.363605 182 780ft 0kts
13-Nov-18 10:24 34.200438 -118.363605 181 780ft 0kts
13-Nov-18 10:25 34.200438 -118.363605 181 780ft 0kts
13-Nov-18 10:26 34.200438 -118.363605 181 780ft 0kts
13-Nov-18 10:27 34.200438 -118.363605 181 780ft 0kts
13-Nov-18 10:28 34.200438 -118.363605 181 780ft 0kts
13-Nov-18 10:29 34.200438 -118.363605 181 780ft 0kts
13-Nov-18 10:30 34.200438 -118.363605 181 780ft 0kts
13-Nov-18 10:31 34.200438 -118.363605 181 780ft 0kts
13-Nov-18 10:32 34.200438 -118.363605 181 780ft 0kts
13-Nov-18 10:33 34.200438 -118.363605 181 780ft 0kts
13-Nov-18 10:34 34.200438 -118.363605 181 780ft 0kts
13-Nov-18 10:35 34.200438 -118.363605 181 780ft 0kts
13-Nov-18 10:36 34.200438 -118.363605 181 780ft 0kts
13-Nov-18 10:37 34.200438 -118.363605 181 780ft 0kts
13-Nov-18 10:38 34.200438 -118.363605 181 780ft 0kts
13-Nov-18 10:39 34.200438 -118.363605 181 780ft 0kts
13-Nov-18 10:40 34.200438 -118.363605 181 780ft 0kts
13-Nov-18 10:41 34.200438 -118.363605 181 780ft 0kts
13-Nov-18 10:42 34.200438 -118.363605 181 780ft 0kts
13-Nov-18 10:43 34.200438 -118.363605 181 780ft 0kts
13-Nov-18 10:44 34.200438 -118.363605 181 780ft 0kts
13-Nov-18 10:45 34.200438 -118.363605 182 780ft 0kts
13-Nov-18 10:46 34.200438 -118.363605 181 780ft 0kts
13-Nov-18 10:47 34.200438 -118.363605 181 780ft 0kts
13-Nov-18 10:48 34.200438 -118.363605 181 780ft 0kts
13-Nov-18 10:49 34.200438 -118.363605 181 780ft 0kts
13-Nov-18 10:50 34.200438 -118.363605 181 780ft 0kts
13-Nov-18 10:51 34.200438 -118.363605 181 780ft 0kts
13-Nov-18 10:52 34.200438 -118.363605 181 780ft 0kts
13-Nov-18 10:53 34.200438 -118.363605 182 780ft 0kts
13-Nov-18 10:54 34.200438 -118.363605 182 780ft 0kts
13-Nov-18 10:55 34.199936 -118.364808 110 780ft 0kts
13-Nov-18 10:56 34.199936 -118.364808 110 780ft 0kts
13-Nov-18 10:57 34.199936 -118.364808 110 780ft 0kts
13-Nov-18 10:58 34.199936 -118.364808 110 780ft 0kts
13-Nov-18 10:59 34.199936 -118.364808 110 780ft 0kts
13-Nov-18 11:00 34.199764 -118.364564 157 780ft 8kts
13-Nov-18 11:01 34.198745 -118.368988 185 780ft 0kts
13-Nov-18 11:02 34.198746 -118.368988 185 780ft 0kts
13-Nov-18 11:03 34.198746 -118.368988 185 780ft 0kts
13-Nov-18 11:04 34.197920 -118.368648 90 780ft 0kts
13-Nov-18 11:05 34.197305 -118.349262 96 1136ft 80kts
13-Nov-18 11:06 34.179881 -118.353908 228 1758ft 88kts
13-Nov-18 11:07 34.164021 -118.375683 228 2437ft 83kts
13-Nov-18 11:08 34.149055 -118.395892 228 3083ft 81kts
13-Nov-18 11:09 34.144640 -118.418078 330 3633ft 82kts
13-Nov-18 11:10 34.167050 -118.421547 355 4210ft 79kts
13-Nov-18 11:11 34.189037 -118.423761 355 4741ft 81kts
13-Nov-18 11:12 34.211635 -118.426547 356 5240ft 84kts
13-Nov-18 11:13 34.234793 -118.431173 356 5746ft 84kts
13-Nov-18 11:14 34.257802 -118.435838 356 6251ft 83kts
13-Nov-18 11:15 34.279964 -118.440213 356 6753ft 79kts
13-Nov-18 11:16 34.301616 -118.443394 358 7200ft 80kts
13-Nov-18 11:17 34.324271 -118.446867 355 7608ft 83kts
13-Nov-18 11:18 34.347113 -118.450891 354 8014ft 83kts
13-Nov-18 11:19 34.369678 -118.455103 353 8417ft 81kts
13-Nov-18 11:20 34.388370 -118.445975 47 8814ft 80kts
13-Nov-18 11:21 34.402025 -118.424731 47 9188ft 82kts
13-Nov-18 11:22 34.416482 -118.401824 48 9496ft 88kts
13-Nov-18 11:23 34.430881 -118.378822 47 9893ft 83kts
13-Nov-18 11:24 34.445132 -118.356067 48 10210ft 86kts
13-Nov-18 11:25 34.459067 -118.333760 47 10609ft 80kts
13-Nov-18 11:26 34.472731 -118.311930 47 10910ft 84kts
13-Nov-18 11:27 34.487248 -118.288656 48 11113ft 94kts
13-Nov-18 11:28 34.504368 -118.261075 49 11125ft 107kts
13-Nov-18 11:29 34.522440 -118.231943 48 11139ft 108kts
13-Nov-18 11:30 34.540293 -118.203148 48 11149ft 103kts
13-Nov-18 11:31 34.557531 -118.175389 48 11156ft 102kts
13-Nov-18 11:32 34.574652 -118.147835 48 11156ft 102kts
13-Nov-18 11:33 34.591850 -118.120140 48 11155ft 102kts
13-Nov-18 11:34 34.609007 -118.092492 48 11154ft 102kts
13-Nov-18 11:35 34.626030 -118.064524 61 11150ft 105kts
13-Nov-18 11:36 34.624353 -118.027805 88 11152ft 110kts
13-Nov-18 11:37 34.621074 -117.990577 88 11152ft 110kts
13-Nov-18 11:38 34.617759 -117.953364 88 11151ft 110kts
13-Nov-18 11:39 34.614531 -117.917343 88 11151ft 110kts
13-Nov-18 11:40 34.611192 -117.880233 88 11151ft 110kts
13-Nov-18 11:41 34.607832 -117.843025 88 11150ft 110kts
13-Nov-18 11:42 34.604474 -117.805972 88 11151ft 110kts
13-Nov-18 11:43 34.602083 -117.768977 84 11151ft 109kts
13-Nov-18 11:44 34.600266 -117.731780 87 11152ft 110kts
13-Nov-18 11:45 34.597329 -117.694079 89 11048ft 118kts
13-Nov-18 11:46 34.593905 -117.655497 89 11033ft 112kts
13-Nov-18 11:47 34.590486 -117.617871 89 11034ft 112kts
13-Nov-18 11:48 34.587022 -117.580233 89 11034ft 112kts
13-Nov-18 11:49 34.583537 -117.542627 89 11034ft 112kts
13-Nov-18 11:50 34.580302 -117.505064 88 11034ft 112kts
13-Nov-18 11:51 34.576929 -117.467437 89 11034ft 112kts
13-Nov-18 11:52 34.573445 -117.429811 89 11034ft 112kts
13-Nov-18 11:53 34.569927 -117.392271 89 11034ft 112kts
13-Nov-18 11:54 34.566380 -117.354639 89 11034ft 112kts
13-Nov-18 11:55 34.562827 -117.317099 89 11035ft 112kts
13-Nov-18 11:56 34.559237 -117.279314 89 11035ft 112kts
13-Nov-18 11:57 34.555641 -117.241580 89 11033ft 112kts
13-Nov-18 11:58 34.552054 -117.204077 89 11031ft 112kts
13-Nov-18 11:59 34.548425 -117.166251 89 11029ft 112kts
13-Nov-18 12:00 34.544891 -117.129538 89 11025ft 112kts
13-Nov-18 12:01 34.541252 -117.091877 89 11025ft 112kts
13-Nov-18 12:02 34.537625 -117.054453 89 11028ft 111kts
13-Nov-18 12:03 34.534024 -117.017391 89 11032ft 110kts
13-Nov-18 12:04 34.530447 -116.980693 88 11036ft 109kts
13-Nov-18 12:05 34.526908 -116.944510 88 11041ft 107kts
13-Nov-18 12:06 34.523390 -116.908705 88 11068ft 104kts
13-Nov-18 12:07 34.519946 -116.873614 88 11080ft 104kts
13-Nov-18 12:08 34.516488 -116.838573 88 11080ft 105kts
13-Nov-18 12:09 34.513007 -116.803432 88 11080ft 105kts
13-Nov-18 12:10 34.510059 -116.768383 87 11080ft 104kts
13-Nov-18 12:11 34.506836 -116.733376 88 11080ft 104kts
13-Nov-18 12:12 34.503602 -116.698204 87 11080ft 104kts
13-Nov-18 12:13 34.484396 -116.672985 152 11070ft 124kts
13-Nov-18 12:14 34.451707 -116.659801 153 11070ft 124kts
13-Nov-18 12:15 34.418998 -116.646870 153 11071ft 124kts
13-Nov-18 12:16 34.386295 -116.634019 153 11069ft 124kts
13-Nov-18 12:17 34.353528 -116.621173 153 11065ft 124kts
13-Nov-18 12:18 34.320732 -116.608329 153 11062ft 123kts
13-Nov-18 12:19 34.288495 -116.594578 151 11059ft 123kts
13-Nov-18 12:20 34.256094 -116.581427 153 11057ft 123kts
13-Nov-18 12:21 34.223636 -116.568671 153 11066ft 122kts
13-Nov-18 12:22 34.191162 -116.555949 153 11064ft 123kts
13-Nov-18 12:23 34.158688 -116.543240 153 11061ft 123kts
13-Nov-18 12:24 34.125108 -116.530062 154 10726ft 140kts
13-Nov-18 12:25 34.087242 -116.515393 155 9737ft 140kts
13-Nov-18 12:26 34.052809 -116.502010 153 9020ft 115kts
13-Nov-18 12:27 34.023072 -116.490290 154 8754ft 123kts
13-Nov-18 12:28 33.988054 -116.483021 197 7628ft 142kts
13-Nov-18 12:29 33.965095 -116.520273 229 6536ft 138kts
13-Nov-18 12:30 33.943665 -116.557180 232 5455ft 133kts
13-Nov-18 12:31 33.915476 -116.571968 154 4189ft 114kts
13-Nov-18 12:32 33.888863 -116.557272 145 3136ft 92kts
13-Nov-18 12:33 33.869197 -116.540420 141 2020ft 83kts
13-Nov-18 12:34 33.852194 -116.524964 141 1164ft 64kts
13-Nov-18 12:35 33.838555 -116.512712 140 608ft 60kts
13-Nov-18 12:36 33.829933 -116.504523 56 481ft 11kts
13-Nov-18 12:37 33.830014 -116.504119 118 481ft 5kts
13-Nov-18 12:38 33.826746 -116.501180 143 481ft 18kts
13-Nov-18 12:39 33.823733 -116.498407 55 481ft 0kts
13-Nov-18 12:40 33.823733 -116.498407 55 481ft 0kts
13-Nov-18 12:41 33.823670 -116.498508 53 481ft 1kts

Navigation Log

Ident Type
Flight plan parsing failed, navigation log unavailable